KMIV

Millville Municipal Airport

Millville, New Jersey, USA
KMIV 151126Z 1512/1612 06010KT P6SM OVC035 TEMPO 1514/1515 -RAPL OVC025 FM151500 07012KT 3SM -RA BR OVC015 FM151800 07014G24KT 2SM RA BR OVC006 FM160000 06016G28KT 4SM -RA BR OVC006 FM160700 36010G18KT 6SM -SHRA BR OVC012 FM160900 29012G20KT P6SM -SHRA BKN012 OVC025
Issued Valid From Valid To
Nov-15 @ 11:26 UTC
(2 hours ago)
Nov-15 @ 12:00 UTC
(an hour ago)
Nov-16 @ 12:00 UTC
(in 23 hours)
Nov-15 @ 12:00 to Nov-15 @ 15:00
KMIV 151126Z 1512/1612 06010KT P6SM OVC035
Wind Visibility Clouds
60° at 10 knots Greater than 6 miles
  • Overcast at 3,500' AGL
Temporary Nov-15 @ 14:00 to Nov-15 @ 15:00
TEMPO 1514/1515 -RAPL OVC025
Clouds Conditions
  • Overcast at 2,500' AGL
  • Light Rain
From Nov-15 @ 15:00 to Nov-15 @ 18:00
FM151500 07012KT 3SM -RA BR OVC015
Wind Visibility Clouds Conditions
70° at 12 knots 3 miles
  • Overcast at 1,500' AGL
  • Light Rain
  • Mist
From Nov-15 @ 18:00 to Nov-16 @ 00:00
FM151800 07014G24KT 2SM RA BR OVC006
Wind Visibility Clouds Conditions
70° at 14 knots
 Gusting to 24 knots
2 miles
  • Overcast at 600' AGL
  • Rain
  • Mist
From Nov-16 @ 00:00 to Nov-16 @ 07:00
FM160000 06016G28KT 4SM -RA BR OVC006
Wind Visibility Clouds Conditions
60° at 16 knots
 Gusting to 28 knots
4 miles
  • Overcast at 600' AGL
  • Light Rain
  • Mist
From Nov-16 @ 07:00 to Nov-16 @ 09:00
FM160700 36010G18KT 6SM -SHRA BR OVC012
Wind Visibility Clouds Conditions
360° at 10 knots
 Gusting to 18 knots
6 miles
  • Overcast at 1,200' AGL
  • Light Rain
  • Mist
From Nov-16 @ 09:00 to Nov-16 @ 12:00
FM160900 29012G20KT P6SM -SHRA BKN012 OVC025
Wind Visibility Clouds Conditions
290° at 12 knots
 Gusting to 20 knots
Greater than 6 miles
  • Broken at 1,200' AGL
  • Overcast at 2,500' AGL
  • Light Rain
KMIV 151126Z 1512/1612 06010KT P6SM OVC035 TEMPO 1514/1515 -RAPL OVC025 FM151500 07012KT 3SM -RA BR OVC015 FM151800 07014G24KT 2SM RA BR OVC006 FM160000 06016G28KT 4SM -RA BR OVC006 FM160700 36010G18KT 6SM -SHRA BR OVC012 FM160900 29012G20KT P6SM -SHRA BKN012 OVC025
Issued Nov-15 @ 11:26 UTC
(2 hours ago)
Valid From Nov-15 @ 12:00 UTC
(an hour ago)
Valid To Nov-16 @ 12:00 UTC
(in 23 hours)
Nov-15 @ 12:00 - Nov-15 @ 15:00
Wind Visibility
60° at 10 knots Greater than 6 miles
Clouds
  • Overcast at 3,500' AGL
Temporary Nov-15 @ 14:00 - Nov-15 @ 15:00
Clouds
  • Overcast at 2,500' AGL
Conditions
  • Light Rain
From Nov-15 @ 15:00 - Nov-15 @ 18:00
Wind Visibility
70° at 12 knots 3 miles
Clouds
  • Overcast at 1,500' AGL
Conditions
  • Light Rain
  • Mist
From Nov-15 @ 18:00 - Nov-16 @ 00:00
Wind Visibility
70° at 14 knots
 Gusting to 24 knots
2 miles
Clouds
  • Overcast at 600' AGL
Conditions
  • Rain
  • Mist
From Nov-16 @ 00:00 - Nov-16 @ 07:00
Wind Visibility
60° at 16 knots
 Gusting to 28 knots
4 miles
Clouds
  • Overcast at 600' AGL
Conditions
  • Light Rain
  • Mist
From Nov-16 @ 07:00 - Nov-16 @ 09:00
Wind Visibility
360° at 10 knots
 Gusting to 18 knots
6 miles
Clouds
  • Overcast at 1,200' AGL
Conditions
  • Light Rain
  • Mist
From Nov-16 @ 09:00 - Nov-16 @ 12:00
Wind Visibility
290° at 12 knots
 Gusting to 20 knots
Greater than 6 miles
Clouds
  • Broken at 1,200' AGL
  • Overcast at 2,500' AGL
Conditions
  • Light Rain